Almedia, Pennsylvania
Current Conditions -  °F | °C
As of 3:35 PM on Monday 22 Dec 2014 (Local Time) from KHZL Reporting Station
Overcast Overcast  
Wind Chill: 30°   Ceiling: 8500
Heat Index: 34°   Visibility: 10mi
Dew Point: 28°   Wind: 5mph
Humidity: 81%   Direction: 110°ESE
Pressure: 30.18"   Gusts: NA
Location:  41.0301°N, 76.4558°W
Report Text: KHZL 222035Z AUTO 11004KT 10SM OVC085 01/M02 A3018 RMK AO2
Loading
Personal Weather Stations






























Interactive Weather Map New forecast layout! Learn more

10-Day Weather Forecast

Advertisements
Track Severe Weather on mobile